sensor_id;sensor_type;location;lat;lon;timestamp;P1;durP1;ratioP1;P2;durP2;ratioP2
26177;SDS011;13924;47.670;10.310;2023-04-25T00:00:41;3.6;;;2.2;;
26177;SDS011;13924;47.670;10.310;2023-04-25T00:15:41;3.0;;;2.5;;
26177;SDS011;13924;47.670;10.310;2023-04-25T00:30:44;3.1;;;2.6;;
26177;SDS011;13924;47.670;10.310;2023-04-25T00:45:42;3.4;;;3.0;;
26177;SDS011;13924;47.670;10.310;2023-04-25T01:00:44;4.6;;;3.4;;
26177;SDS011;13924;47.670;10.310;2023-04-25T01:01:26;5.0;;;3.5;;
26177;SDS011;13924;47.670;10.310;2023-04-25T01:15:44;7.9;;;3.7;;
26177;SDS011;13924;47.670;10.310;2023-04-25T01:30:45;6.9;;;3.5;;
26177;SDS011;13924;47.670;10.310;2023-04-25T01:45:45;5.1;;;3.6;;
26177;SDS011;13924;47.670;10.310;2023-04-25T02:00:46;3.9;;;3.3;;
26177;SDS011;13924;47.670;10.310;2023-04-25T02:15:46;6.3;;;3.7;;
26177;SDS011;13924;47.670;10.310;2023-04-25T02:30:47;5.8;;;3.4;;
26177;SDS011;13924;47.670;10.310;2023-04-25T02:45:48;4.5;;;3.1;;
26177;SDS011;13924;47.670;10.310;2023-04-25T03:00:48;9.7;;;3.4;;
26177;SDS011;13924;47.670;10.310;2023-04-25T03:15:50;5.9;;;3.7;;
26177;SDS011;13924;47.670;10.310;2023-04-25T03:30:50;5.4;;;4.1;;
26177;SDS011;13924;47.670;10.310;2023-04-25T03:45:51;8.7;;;4.2;;
26177;SDS011;13924;47.670;10.310;2023-04-25T04:00:51;8.5;;;4.0;;
26177;SDS011;13924;47.670;10.310;2023-04-25T04:15:19;6.0;;;5.1;;
26177;SDS011;13924;47.670;10.310;2023-04-25T04:30:21;7.5;;;3.5;;
26177;SDS011;13924;47.670;10.310;2023-04-25T04:45:21;4.7;;;3.7;;
26177;SDS011;13924;47.670;10.310;2023-04-25T05:00:23;10.6;;;7.8;;
26177;SDS011;13924;47.670;10.310;2023-04-25T05:15:24;13.0;;;4.9;;
26177;SDS011;13924;47.670;10.310;2023-04-25T05:30:25;7.4;;;4.8;;
26177;SDS011;13924;47.670;10.310;2023-04-25T05:45:26;9.2;;;4.6;;
26177;SDS011;13924;47.670;10.310;2023-04-25T06:00:26;9.2;;;4.9;;
26177;SDS011;13924;47.670;10.310;2023-04-25T06:15:27;9.8;;;4.2;;
26177;SDS011;13924;47.670;10.310;2023-04-25T06:30:27;8.8;;;4.2;;
26177;SDS011;13924;47.670;10.310;2023-04-25T06:45:34;8.8;;;4.0;;
26177;SDS011;13924;47.670;10.310;2023-04-25T07:00:30;6.1;;;3.3;;
26177;SDS011;13924;47.670;10.310;2023-04-25T07:15:31;4.7;;;3.0;;
26177;SDS011;13924;47.670;10.310;2023-04-25T07:30:32;4.7;;;2.8;;
26177;SDS011;13924;47.670;10.310;2023-04-25T07:45:32;6.6;;;3.1;;
26177;SDS011;13924;47.670;10.310;2023-04-25T08:00:34;5.8;;;2.0;;
26177;SDS011;13924;47.670;10.310;2023-04-25T08:15:35;4.6;;;2.3;;
26177;SDS011;13924;47.670;10.310;2023-04-25T08:30:34;6.7;;;2.4;;
26177;SDS011;13924;47.670;10.310;2023-04-25T08:45:35;5.0;;;1.8;;
26177;SDS011;13924;47.670;10.310;2023-04-25T09:00:35;5.3;;;2.2;;
26177;SDS011;13924;47.670;10.310;2023-04-25T09:15:47;9.6;;;2.4;;
26177;SDS011;13924;47.670;10.310;2023-04-25T09:30:37;3.9;;;3.1;;
26177;SDS011;13924;47.670;10.310;2023-04-25T09:45:40;4.3;;;2.6;;
26177;SDS011;13924;47.670;10.310;2023-04-25T10:00:39;1.3;;;1.2;;
26177;SDS011;13924;47.670;10.310;2023-04-25T10:15:47;1.6;;;1.2;;
26177;SDS011;13924;47.670;10.310;2023-04-25T10:30:49;0.4;;;0.4;;
26177;SDS011;13924;47.670;10.310;2023-04-25T10:45:51;1.6;;;1.1;;
26177;SDS011;13924;47.670;10.310;2023-04-25T11:00:41;1.8;;;1.2;;
26177;SDS011;13924;47.670;10.310;2023-04-25T11:15:42;1.8;;;0.8;;
26177;SDS011;13924;47.670;10.310;2023-04-25T11:30:47;2.1;;;1.1;;
26177;SDS011;13924;47.670;10.310;2023-04-25T11:45:45;1.5;;;1.3;;
26177;SDS011;13924;47.670;10.310;2023-04-25T12:00:43;1.6;;;1.2;;
26177;SDS011;13924;47.670;10.310;2023-04-25T12:15:51;1.2;;;1.1;;
26177;SDS011;13924;47.670;10.310;2023-04-25T12:30:52;0.8;;;0.8;;
26177;SDS011;13924;47.670;10.310;2023-04-25T12:45:52;0.8;;;0.8;;
26177;SDS011;13924;47.670;10.310;2023-04-25T13:00:52;1.3;;;1.1;;
26177;SDS011;13924;47.670;10.310;2023-04-25T13:15:51;1.6;;;1.5;;
26177;SDS011;13924;47.670;10.310;2023-04-25T13:30:53;1.1;;;0.9;;
26177;SDS011;13924;47.670;10.310;2023-04-25T13:45:52;1.6;;;1.5;;
26177;SDS011;13924;47.670;10.310;2023-04-25T14:00:53;1.0;;;0.9;;
26177;SDS011;13924;47.670;10.310;2023-04-25T14:15:52;0.9;;;0.8;;
26177;SDS011;13924;47.670;10.310;2023-04-25T14:30:55;1.8;;;0.8;;
26177;SDS011;13924;47.670;10.310;2023-04-25T14:45:53;0.7;;;0.7;;
26177;SDS011;13924;47.670;10.310;2023-04-25T15:00:54;0.5;;;0.5;;
26177;SDS011;13924;47.670;10.310;2023-04-25T15:15:53;0.7;;;0.7;;
26177;SDS011;13924;47.670;10.310;2023-04-25T15:30:55;1.2;;;0.6;;
26177;SDS011;13924;47.670;10.310;2023-04-25T15:45:54;2.4;;;2.2;;
26177;SDS011;13924;47.670;10.310;2023-04-25T16:00:57;1.4;;;1.3;;
26177;SDS011;13924;47.670;10.310;2023-04-25T16:15:55;2.6;;;2.4;;
26177;SDS011;13924;47.670;10.310;2023-04-25T16:30:56;1.1;;;1.0;;
26177;SDS011;13924;47.670;10.310;2023-04-25T16:45:56;2.0;;;1.8;;
26177;SDS011;13924;47.670;10.310;2023-04-25T17:00:56;4.0;;;2.3;;
26177;SDS011;13924;47.670;10.310;2023-04-25T17:15:57;2.1;;;1.9;;
26177;SDS011;13924;47.670;10.310;2023-04-25T17:30:57;4.5;;;3.6;;
26177;SDS011;13924;47.670;10.310;2023-04-25T17:45:57;3.6;;;2.5;;
26177;SDS011;13924;47.670;10.310;2023-04-25T18:01:00;2.7;;;2.4;;
26177;SDS011;13924;47.670;10.310;2023-04-25T18:16:00;2.2;;;1.7;;
26177;SDS011;13924;47.670;10.310;2023-04-25T18:31:01;2.3;;;2.0;;
26177;SDS011;13924;47.670;10.310;2023-04-25T18:46:00;3.3;;;2.5;;
26177;SDS011;13924;47.670;10.310;2023-04-25T19:01:01;2.8;;;2.5;;
26177;SDS011;13924;47.670;10.310;2023-04-25T19:16:01;2.0;;;1.8;;
26177;SDS011;13924;47.670;10.310;2023-04-25T19:31:03;3.1;;;1.9;;
26177;SDS011;13924;47.670;10.310;2023-04-25T19:46:03;2.8;;;2.2;;
26177;SDS011;13924;47.670;10.310;2023-04-25T20:01:04;3.2;;;2.4;;
26177;SDS011;13924;47.670;10.310;2023-04-25T20:16:09;3.9;;;3.2;;
26177;SDS011;13924;47.670;10.310;2023-04-25T20:31:05;2.0;;;1.7;;
26177;SDS011;13924;47.670;10.310;2023-04-25T20:46:06;2.1;;;1.3;;
26177;SDS011;13924;47.670;10.310;2023-04-25T21:01:07;1.4;;;1.3;;
26177;SDS011;13924;47.670;10.310;2023-04-25T21:16:07;1.5;;;1.4;;
26177;SDS011;13924;47.670;10.310;2023-04-25T21:31:08;1.6;;;1.3;;
26177;SDS011;13924;47.670;10.310;2023-04-25T21:46:08;1.2;;;1.1;;
26177;SDS011;13924;47.670;10.310;2023-04-25T22:00:42;3.2;;;2.3;;
26177;SDS011;13924;47.670;10.310;2023-04-25T22:15:35;2.2;;;1.6;;
26177;SDS011;13924;47.670;10.310;2023-04-25T22:30:35;2.3;;;1.9;;
26177;SDS011;13924;47.670;10.310;2023-04-25T22:45:36;2.0;;;1.8;;
26177;SDS011;13924;47.670;10.310;2023-04-25T23:00:36;2.6;;;2.4;;
26177;SDS011;13924;47.670;10.310;2023-04-25T23:15:37;3.5;;;2.4;;
26177;SDS011;13924;47.670;10.310;2023-04-25T23:30:38;3.0;;;2.7;;
26177;SDS011;13924;47.670;10.310;2023-04-25T23:45:38;3.3;;;3.0;;
